Forside
METAR-TAF:

METAR-TAF

Lufthavne :

Muscatine, Iowa, USA

Breddekreds: 41-22N, længdekreds: 091-09W, højde: 167 m

Aktuelle vejr

Denne rapport blev lavet for 27 minutter siden, kl. 18:15 UTC
Vind 9 kt fra sydøst med vindstød på up til 18 kt
Temperatur -9°C
Fugtighed 62%
Tryk 1029 hPa
Sigt: 16.1 km
Nogle få skyer i en højde af 10000 ft

METAR: KMUT 211815Z AUTO 13009G18KT 10SM FEW100 M09/M15 A3040 RMK AO2

Tid: 12:42 (18:42 UTC)


TAF: fraværende

Vejrobservationer og prognoser fra mere end 4000 lufthavne (METAR og TAF).

De gule og røde prikker repræsenterer de meteorologiske stationer.

Flyt musen over at se navnet på stationen.

Så klik over at se vejr observationer og prognoser.

At skifte det kort: Klik på de grønne knapper med et sort kors for at zoome ind; på den grønne knap med en bindestreg for at zoome ud; eller på de grønne pile for tilstødende kort.


METAR-TAF: